Artesian, South Dakota
Current Conditions -  °F | °C
As of 9:53 AM on Thursday 27 Nov 2014 (Local Time) from KMHE Reporting Station
Overcast Overcast  
Wind Chill: -8°   Ceiling: 3600
Heat Index:   Visibility: 10mi
Dew Point: -5°   Wind: 12mph
Humidity: 58%   Direction: 140°SE
Pressure: 30.48"   Gusts: NA
Location:  44.01°N, 97.92°W
Report Text: KMHE 271553Z AUTO 14010KT 10SM OVC036 M14/M21 A3048 RMK AO2 SLP352 T11391206
Loading
Personal Weather Stations






























Interactive Weather Map New forecast layout! Learn more

10-Day Weather Forecast

Advertisements
Track Severe Weather on mobile